createdAt,value
2023-11-30T00:01:10.819Z,77.22
2023-11-30T00:03:40.887Z,77.59
2023-11-30T00:06:09.827Z,77.70
2023-11-30T00:08:38.291Z,77.81
2023-11-30T00:11:07.684Z,77.99
2023-11-30T00:13:36.291Z,78.29
2023-11-30T00:16:05.527Z,76.95
2023-11-30T00:18:34.066Z,76.24
2023-11-30T00:21:02.723Z,76.85
2023-11-30T00:23:31.354Z,76.54
2023-11-30T00:25:59.823Z,75.42
2023-11-30T00:28:28.284Z,74.86
2023-11-30T00:30:57.045Z,73.78
2023-11-30T00:33:25.666Z,75.26
2023-11-30T00:35:55.064Z,76.05
2023-11-30T00:38:23.894Z,75.28
2023-11-30T00:40:52.390Z,74.15
2023-11-30T00:43:21.057Z,75.12
2023-11-30T00:46:00.452Z,75.69
2023-11-30T00:48:35.889Z,75.35
2023-11-30T00:51:04.581Z,75.39
2023-11-30T00:53:33.207Z,75.07
2023-11-30T00:56:01.591Z,74.84
2023-11-30T00:58:30.083Z,74.79
2023-11-30T01:00:58.837Z,75.14
2023-11-30T01:03:27.447Z,74.70
2023-11-30T01:05:56.031Z,74.68
2023-11-30T01:08:24.543Z,74.52
2023-11-30T01:10:53.197Z,74.90
2023-11-30T01:13:21.668Z,75.15
2023-11-30T01:15:50.242Z,75.63
2023-11-30T01:18:19.245Z,75.40
2023-11-30T01:20:47.827Z,75.37
2023-11-30T01:23:16.353Z,74.88
2023-11-30T01:25:44.889Z,74.54
2023-11-30T01:28:13.325Z,74.46
2023-11-30T01:30:41.706Z,74.94
2023-11-30T01:33:10.276Z,74.64
2023-11-30T01:35:38.868Z,74.95
2023-11-30T01:38:07.389Z,74.48
2023-11-30T01:40:35.859Z,74.61
2023-11-30T01:43:07.946Z,74.11
2023-11-30T01:45:36.464Z,73.27
2023-11-30T01:48:06.389Z,74.14
2023-11-30T01:50:35.424Z,74.24
2023-11-30T01:53:04.355Z,73.78
2023-11-30T01:55:33.762Z,74.10
2023-11-30T01:58:04.243Z,74.38
2023-11-30T02:00:33.544Z,74.41
2023-11-30T02:03:04.959Z,74.77
2023-11-30T02:05:36.485Z,74.78
2023-11-30T02:08:05.173Z,75.11
2023-11-30T02:10:33.801Z,74.88
2023-11-30T02:13:02.290Z,74.73
2023-11-30T02:15:30.695Z,74.52
2023-11-30T02:17:59.680Z,74.60
2023-11-30T02:20:28.342Z,74.37
2023-11-30T02:22:56.876Z,74.18
2023-11-30T02:25:25.921Z,73.99
2023-11-30T02:27:54.817Z,73.99
2023-11-30T02:30:23.914Z,74.28
2023-11-30T02:32:53.663Z,74.57
2023-11-30T02:35:22.392Z,75.09
2023-11-30T02:37:50.923Z,75.40
2023-11-30T02:40:20.372Z,75.56
2023-11-30T02:42:48.966Z,75.59
2023-11-30T02:45:17.449Z,75.42
2023-11-30T02:47:45.888Z,75.52
2023-11-30T02:50:14.617Z,75.49
2023-11-30T02:52:43.332Z,75.57
2023-11-30T02:55:11.987Z,75.69
2023-11-30T02:57:41.629Z,75.82
2023-11-30T03:00:11.106Z,75.62
2023-11-30T03:02:39.704Z,75.78
2023-11-30T03:05:08.556Z,75.91
2023-11-30T03:07:36.983Z,75.64
2023-11-30T03:10:06.132Z,75.67
2023-11-30T03:12:34.751Z,75.90
2023-11-30T03:15:04.131Z,76.07
2023-11-30T03:17:33.573Z,76.24
2023-11-30T03:20:02.206Z,76.44
2023-11-30T03:22:30.801Z,76.26
2023-11-30T03:24:59.270Z,75.98
2023-11-30T03:27:27.839Z,75.97
2023-11-30T03:29:56.357Z,75.71
2023-11-30T03:32:24.779Z,75.53
2023-11-30T03:34:53.288Z,75.40
2023-11-30T03:37:21.761Z,75.67
2023-11-30T03:39:50.760Z,75.81
2023-11-30T03:42:20.748Z,75.88
2023-11-30T03:44:49.919Z,76.18
2023-11-30T03:47:18.703Z,76.11
2023-11-30T03:49:47.493Z,75.95
2023-11-30T03:52:16.173Z,75.80
2023-11-30T03:54:44.651Z,75.66
2023-11-30T03:57:13.672Z,75.73
2023-11-30T03:59:43.302Z,75.97
2023-11-30T04:02:11.837Z,76.30
2023-11-30T04:04:41.077Z,76.64
2023-11-30T04:07:09.557Z,76.55
2023-11-30T04:09:39.119Z,76.46
2023-11-30T04:12:07.991Z,76.45
2023-11-30T04:14:36.697Z,76.42
2023-11-30T04:17:05.892Z,76.20
2023-11-30T04:19:34.882Z,76.23
2023-11-30T04:22:03.416Z,76.48
2023-11-30T04:24:31.907Z,76.63
2023-11-30T04:27:01.435Z,76.76
2023-11-30T04:29:29.925Z,76.59
2023-11-30T04:31:58.663Z,76.47
2023-11-30T04:34:28.170Z,76.44
2023-11-30T04:36:56.749Z,76.51
2023-11-30T04:39:25.923Z,76.37
2023-11-30T04:41:55.632Z,76.48
2023-11-30T04:44:30.027Z,76.64
2023-11-30T04:46:58.782Z,76.74
2023-11-30T04:49:27.287Z,76.83
2023-11-30T04:51:55.662Z,77.24
2023-11-30T04:54:24.202Z,77.15
2023-11-30T04:56:52.939Z,77.09
2023-11-30T04:59:21.625Z,76.90
2023-11-30T05:01:50.254Z,76.70
2023-11-30T05:04:19.117Z,76.78
2023-11-30T05:06:47.892Z,76.65
2023-11-30T05:09:17.884Z,76.54
2023-11-30T05:11:46.322Z,76.82
2023-11-30T05:14:14.849Z,77.30
2023-11-30T05:16:43.367Z,77.44
2023-11-30T05:19:11.863Z,77.43
2023-11-30T05:21:40.193Z,76.89
2023-11-30T05:24:08.755Z,76.89
2023-11-30T05:26:38.006Z,77.02
2023-11-30T05:29:06.668Z,77.05
2023-11-30T05:31:35.492Z,77.28
2023-11-30T05:34:04.129Z,77.59
2023-11-30T05:36:32.989Z,77.46
2023-11-30T05:39:01.638Z,77.74
2023-11-30T05:41:30.288Z,77.70
2023-11-30T05:43:58.709Z,77.52
2023-11-30T05:46:27.089Z,77.68
2023-11-30T05:48:56.582Z,77.93
2023-11-30T05:51:25.955Z,78.01
2023-11-30T05:53:54.780Z,78.05
2023-11-30T05:56:23.580Z,78.12
2023-11-30T05:58:52.327Z,78.00
2023-11-30T06:01:20.795Z,77.71
2023-11-30T06:03:49.367Z,77.68
2023-11-30T06:06:18.172Z,77.64
2023-11-30T06:08:48.530Z,78.05
2023-11-30T06:11:17.422Z,78.14
2023-11-30T06:13:46.613Z,78.13
2023-11-30T06:16:15.426Z,77.94
2023-11-30T06:18:43.833Z,77.92
2023-11-30T06:21:13.169Z,77.96
2023-11-30T06:23:41.662Z,78.10
2023-11-30T06:26:10.283Z,78.15
2023-11-30T06:28:39.338Z,78.19
2023-11-30T06:31:09.123Z,78.19
2023-11-30T06:33:37.723Z,78.15
2023-11-30T06:36:06.988Z,78.00
2023-11-30T06:38:35.359Z,78.29
2023-11-30T06:41:11.876Z,78.48
2023-11-30T06:43:41.866Z,78.39
2023-11-30T06:46:10.494Z,78.15
2023-11-30T06:48:39.101Z,78.06
2023-11-30T06:51:08.349Z,78.02
2023-11-30T06:53:36.834Z,77.87
2023-11-30T06:56:06.096Z,77.81
2023-11-30T06:58:34.734Z,77.87
2023-11-30T07:01:08.772Z,77.58
2023-11-30T07:03:42.656Z,77.65
2023-11-30T07:06:12.279Z,77.28
2023-11-30T07:08:40.937Z,76.76
2023-11-30T07:11:12.843Z,76.68
2023-11-30T07:13:42.163Z,76.26
2023-11-30T07:16:11.363Z,76.51
2023-11-30T07:18:40.310Z,76.74
2023-11-30T07:21:16.159Z,76.37
2023-11-30T07:23:45.212Z,75.67
2023-11-30T07:26:14.824Z,75.43
2023-11-30T07:28:44.145Z,74.90
2023-11-30T07:31:20.747Z,74.42
2023-11-30T07:33:50.252Z,73.94
2023-11-30T07:36:18.849Z,74.03
2023-11-30T07:38:47.408Z,74.27
2023-11-30T07:41:16.000Z,73.55
2023-11-30T07:43:44.948Z,73.25
2023-11-30T07:46:13.335Z,73.24
2023-11-30T07:48:41.938Z,73.42
2023-11-30T07:51:10.606Z,73.25
2023-11-30T07:53:39.061Z,72.93
2023-11-30T07:56:08.668Z,71.91
2023-11-30T07:58:37.736Z,71.58
2023-11-30T08:01:06.668Z,71.26
2023-11-30T08:03:35.376Z,70.78
2023-11-30T08:06:04.381Z,70.02
2023-11-30T08:08:33.016Z,69.84
2023-11-30T08:11:02.600Z,69.32
2023-11-30T08:13:32.146Z,68.55
2023-11-30T08:16:04.877Z,67.93
2023-11-30T08:18:33.798Z,67.38
2023-11-30T08:21:04.051Z,67.55
2023-11-30T08:23:34.688Z,66.91
2023-11-30T08:26:05.308Z,66.60
2023-11-30T08:28:34.259Z,65.35
2023-11-30T08:31:06.285Z,65.14
2023-11-30T08:33:36.003Z,63.72
2023-11-30T08:36:06.050Z,63.79
2023-11-30T08:38:37.570Z,64.26
2023-11-30T08:41:06.767Z,63.29
2023-11-30T08:43:35.330Z,62.08
2023-11-30T08:46:04.181Z,61.81
2023-11-30T08:48:32.914Z,61.80
2023-11-30T08:51:01.392Z,62.18
2023-11-30T08:53:30.123Z,60.76
2023-11-30T08:55:58.560Z,60.87
2023-11-30T08:58:27.491Z,60.67
2023-11-30T09:00:55.926Z,60.51
2023-11-30T09:03:24.538Z,59.78
2023-11-30T09:08:21.737Z,61.34
2023-11-30T09:10:50.299Z,61.14
2023-11-30T09:13:18.894Z,60.72
2023-11-30T09:15:47.538Z,61.17
2023-11-30T09:18:16.107Z,60.73
2023-11-30T09:20:46.166Z,59.48
2023-11-30T09:23:14.749Z,58.57
2023-11-30T09:25:43.489Z,58.92
2023-11-30T09:28:11.948Z,59.90
2023-11-30T09:30:40.926Z,59.14
2023-11-30T09:33:09.921Z,59.24
2023-11-30T09:35:38.736Z,58.64
2023-11-30T09:38:07.934Z,57.84
2023-11-30T09:40:36.364Z,57.40
2023-11-30T09:43:06.074Z,57.79
2023-11-30T09:45:37.110Z,56.73
2023-11-30T09:48:06.314Z,57.04
2023-11-30T09:50:35.006Z,57.56
2023-11-30T09:53:04.360Z,57.27
2023-11-30T09:55:32.779Z,56.88
2023-11-30T09:58:01.251Z,55.78
2023-11-30T10:00:29.814Z,55.50
2023-11-30T10:03:01.675Z,54.68
2023-11-30T10:05:30.473Z,54.29
2023-11-30T10:08:00.144Z,55.32
2023-11-30T10:10:29.069Z,54.47
2023-11-30T10:12:57.816Z,54.08
2023-11-30T10:15:27.173Z,53.75
2023-11-30T10:17:55.867Z,54.75
2023-11-30T10:20:27.324Z,54.80
2023-11-30T10:22:55.925Z,54.49
2023-11-30T10:25:26.204Z,52.26
2023-11-30T10:27:57.399Z,52.44
2023-11-30T10:30:27.509Z,52.77
2023-11-30T10:32:57.679Z,53.61
2023-11-30T10:35:32.105Z,53.62
2023-11-30T10:38:01.940Z,52.91
2023-11-30T10:40:30.660Z,53.64
2023-11-30T10:43:05.383Z,53.85
2023-11-30T10:45:39.636Z,53.60
2023-11-30T10:48:13.783Z,52.99
2023-11-30T10:50:42.558Z,52.90
2023-11-30T10:53:25.674Z,53.31
2023-11-30T10:55:55.785Z,54.01
2023-11-30T10:58:26.208Z,54.71
2023-11-30T11:01:01.156Z,55.09
2023-11-30T11:03:29.931Z,56.32
2023-11-30T11:05:59.378Z,57.18
2023-11-30T11:08:29.086Z,57.73
2023-11-30T11:11:08.136Z,58.08
2023-11-30T11:13:47.608Z,58.85
2023-11-30T11:16:16.516Z,59.52
2023-11-30T11:18:45.688Z,60.07
2023-11-30T11:21:27.612Z,60.35
2023-11-30T11:24:04.768Z,60.77
2023-11-30T11:26:42.494Z,61.38
2023-11-30T11:29:15.376Z,61.66
2023-11-30T11:31:45.466Z,61.83
2023-11-30T11:34:15.604Z,61.91
2023-11-30T11:36:44.755Z,61.40
2023-11-30T11:39:14.700Z,61.69
2023-11-30T11:41:43.645Z,61.70
2023-11-30T11:44:12.455Z,61.88
2023-11-30T11:46:41.412Z,62.27
2023-11-30T11:49:10.048Z,63.16
2023-11-30T11:51:46.862Z,63.48
2023-11-30T11:54:20.338Z,63.64
2023-11-30T11:56:50.975Z,64.17
2023-11-30T11:59:24.415Z,64.57
2023-11-30T12:01:55.281Z,64.69
2023-11-30T12:04:35.274Z,64.99
2023-11-30T12:07:17.818Z,64.46
2023-11-30T12:09:58.009Z,64.27
2023-11-30T12:12:36.486Z,64.95
2023-11-30T12:15:06.029Z,65.27
2023-11-30T12:17:34.873Z,65.76
2023-11-30T12:20:03.558Z,65.69
2023-11-30T12:22:32.021Z,65.90
2023-11-30T12:25:01.744Z,65.93
2023-11-30T12:27:30.508Z,66.18
2023-11-30T12:29:59.262Z,65.94
2023-11-30T12:32:28.015Z,66.41
2023-11-30T12:34:58.467Z,66.11
2023-11-30T12:37:27.826Z,65.76
2023-11-30T12:39:56.481Z,65.46
2023-11-30T12:42:25.712Z,65.10
2023-11-30T12:44:54.428Z,64.76
2023-11-30T12:47:24.514Z,63.33
2023-11-30T12:49:53.056Z,62.38
2023-11-30T12:52:22.395Z,61.46
2023-11-30T12:54:52.313Z,61.49
2023-11-30T12:57:21.295Z,60.52
2023-11-30T12:59:50.128Z,59.98
2023-11-30T13:02:19.247Z,59.52
2023-11-30T13:04:48.247Z,59.30
2023-11-30T13:07:17.733Z,59.71
2023-11-30T13:09:46.778Z,60.41
2023-11-30T13:12:15.577Z,60.88
2023-11-30T13:14:45.060Z,62.06
2023-11-30T13:17:15.631Z,62.45
2023-11-30T13:19:46.410Z,63.30
2023-11-30T13:22:15.248Z,63.37
2023-11-30T13:24:44.641Z,63.89
2023-11-30T13:27:13.421Z,64.20
2023-11-30T13:29:41.973Z,64.50
2023-11-30T13:34:44.115Z,65.24
2023-11-30T13:37:13.757Z,65.24
2023-11-30T13:39:42.346Z,65.24
2023-11-30T13:42:11.175Z,65.68
2023-11-30T13:44:40.451Z,65.76
2023-11-30T13:47:09.676Z,66.31
2023-11-30T13:49:38.528Z,66.91
2023-11-30T13:52:08.698Z,67.22
2023-11-30T13:54:37.389Z,66.96
2023-11-30T13:57:08.311Z,67.50
2023-11-30T13:59:37.149Z,67.68
2023-11-30T14:02:06.404Z,67.94
2023-11-30T14:04:35.087Z,67.74
2023-11-30T14:07:05.356Z,67.55
2023-11-30T14:09:34.049Z,67.95
2023-11-30T14:12:02.614Z,68.09
2023-11-30T14:14:31.251Z,68.55
2023-11-30T14:16:59.702Z,68.62
2023-11-30T14:19:28.363Z,68.77
2023-11-30T14:21:56.902Z,69.00
2023-11-30T14:24:25.455Z,69.27
2023-11-30T14:26:54.125Z,69.57
2023-11-30T14:29:23.893Z,69.91
2023-11-30T14:31:52.863Z,69.65
2023-11-30T14:34:21.700Z,70.13
2023-11-30T14:36:53.395Z,70.02
2023-11-30T14:39:28.570Z,70.43
2023-11-30T14:41:57.895Z,70.16
2023-11-30T14:44:27.109Z,70.22
2023-11-30T14:46:55.996Z,70.02
2023-11-30T14:49:24.613Z,70.24
2023-11-30T14:51:53.317Z,70.96
2023-11-30T14:54:21.977Z,71.14
2023-11-30T14:56:51.997Z,70.88
2023-11-30T14:59:20.608Z,70.87
2023-11-30T15:01:49.251Z,70.63
2023-11-30T15:04:18.283Z,70.77
2023-11-30T15:06:47.144Z,70.86
2023-11-30T15:09:16.610Z,71.05
2023-11-30T15:11:45.400Z,70.90
2023-11-30T15:14:14.006Z,70.98
2023-11-30T15:16:42.720Z,71.21
2023-11-30T15:19:11.456Z,71.70
2023-11-30T15:21:39.901Z,71.69
2023-11-30T15:24:08.765Z,71.60
2023-11-30T15:26:37.287Z,71.68
2023-11-30T15:29:05.944Z,71.64
2023-11-30T15:31:34.444Z,71.94
2023-11-30T15:34:03.468Z,71.86
2023-11-30T15:36:32.776Z,72.49
2023-11-30T15:39:12.567Z,72.12
2023-11-30T15:41:43.996Z,71.95
2023-11-30T15:44:12.941Z,72.01
2023-11-30T15:46:44.833Z,72.02
2023-11-30T15:49:13.794Z,72.02
2023-11-30T15:51:47.618Z,72.61
2023-11-30T15:54:16.321Z,72.47
2023-11-30T15:56:45.322Z,72.38
2023-11-30T15:59:13.903Z,71.96
2023-11-30T16:01:45.276Z,72.03
2023-11-30T16:04:14.119Z,72.23
2023-11-30T16:06:43.372Z,72.45
2023-11-30T16:09:13.348Z,72.52
2023-11-30T16:11:42.912Z,72.41
2023-11-30T16:14:11.540Z,72.97
2023-11-30T16:16:46.148Z,72.79
2023-11-30T16:19:14.766Z,72.91
2023-11-30T16:21:43.438Z,73.02
2023-11-30T16:24:12.070Z,73.15
2023-11-30T16:26:40.756Z,73.28
2023-11-30T16:29:09.333Z,73.11
2023-11-30T16:31:38.014Z,73.22
2023-11-30T16:34:06.743Z,73.20
2023-11-30T16:36:35.422Z,73.54
2023-11-30T16:39:05.046Z,73.61
2023-11-30T16:41:34.398Z,73.93
2023-11-30T16:44:03.083Z,73.88
2023-11-30T16:46:32.406Z,73.86
2023-11-30T16:49:01.179Z,73.96
2023-11-30T16:51:30.288Z,73.76
2023-11-30T16:53:58.768Z,74.14
2023-11-30T16:56:29.266Z,74.14
2023-11-30T16:58:58.210Z,74.10
2023-11-30T17:01:30.953Z,74.02
2023-11-30T17:03:59.787Z,74.06
2023-11-30T17:06:28.753Z,74.15
2023-11-30T17:08:58.226Z,74.14
2023-11-30T17:11:29.680Z,74.81
2023-11-30T17:13:58.348Z,74.44
2023-11-30T17:16:26.959Z,74.20
2023-11-30T17:18:55.757Z,74.29
2023-11-30T17:21:25.144Z,74.48
2023-11-30T17:23:53.791Z,74.54
2023-11-30T17:26:23.112Z,74.45
2023-11-30T17:28:51.743Z,74.66
2023-11-30T17:31:20.485Z,74.67
2023-11-30T17:33:50.329Z,74.99
2023-11-30T17:36:19.145Z,74.82
2023-11-30T17:38:47.818Z,75.01
2023-11-30T17:41:16.407Z,74.97
2023-11-30T17:43:44.989Z,75.16
2023-11-30T17:46:13.724Z,75.07
2023-11-30T17:48:42.304Z,75.25
2023-11-30T17:51:12.878Z,75.12
2023-11-30T17:53:41.518Z,75.17
2023-11-30T17:56:10.504Z,75.19
2023-11-30T17:58:39.087Z,75.43
2023-11-30T18:01:08.124Z,75.08
2023-11-30T18:03:36.900Z,75.18
2023-11-30T18:06:07.352Z,75.40
2023-11-30T18:08:36.491Z,75.49
2023-11-30T18:11:07.785Z,75.83
2023-11-30T18:13:36.524Z,75.81
2023-11-30T18:16:05.503Z,76.75
2023-11-30T18:18:34.200Z,77.73
2023-11-30T18:21:02.728Z,78.34
2023-11-30T18:23:31.263Z,79.08
2023-11-30T18:25:59.790Z,79.08
2023-11-30T18:28:28.327Z,79.76
2023-11-30T18:31:01.778Z,80.30
2023-11-30T18:33:37.877Z,80.52
2023-11-30T18:36:08.726Z,80.86
2023-11-30T18:38:44.024Z,81.21
2023-11-30T18:41:20.676Z,81.68
2023-11-30T18:43:50.726Z,81.92
2023-11-30T18:46:20.052Z,82.01
2023-11-30T18:48:48.780Z,81.92
2023-11-30T18:51:17.369Z,82.30
2023-11-30T18:53:46.048Z,82.19
2023-11-30T18:56:14.631Z,82.77
2023-11-30T18:58:43.621Z,82.49
2023-11-30T19:01:15.250Z,82.72
2023-11-30T19:03:44.229Z,82.60
2023-11-30T19:06:17.690Z,82.67
2023-11-30T19:08:47.522Z,82.91
2023-11-30T19:11:17.467Z,83.53
2023-11-30T19:13:46.286Z,84.21
2023-11-30T19:16:20.345Z,83.09
2023-11-30T19:18:50.290Z,82.63
2023-11-30T19:21:19.689Z,82.86
2023-11-30T19:23:48.393Z,82.64
2023-11-30T19:26:18.818Z,82.91
2023-11-30T19:28:47.547Z,83.10
2023-11-30T19:31:16.970Z,83.14
2023-11-30T19:33:46.483Z,83.26
2023-11-30T19:36:15.092Z,83.29
2023-11-30T19:38:43.674Z,83.54
2023-11-30T19:41:12.881Z,83.88
2023-11-30T19:43:41.578Z,83.97
2023-11-30T19:46:16.444Z,83.83
2023-11-30T19:48:48.068Z,83.94
2023-11-30T19:51:20.361Z,83.75
2023-11-30T19:53:49.603Z,84.10
2023-11-30T19:56:18.303Z,84.06
2023-11-30T19:58:47.074Z,84.12
2023-11-30T20:01:22.694Z,84.09
2023-11-30T20:03:51.564Z,84.36
2023-11-30T20:06:22.881Z,84.70
2023-11-30T20:08:53.804Z,85.03
2023-11-30T20:11:23.708Z,84.82
2023-11-30T20:13:52.343Z,84.59
2023-11-30T20:16:20.991Z,84.70
2023-11-30T20:18:50.361Z,84.98
2023-11-30T20:21:22.709Z,85.21
2023-11-30T20:23:51.480Z,84.93
2023-11-30T20:26:20.176Z,84.94
2023-11-30T20:28:49.074Z,85.18
2023-11-30T20:31:17.911Z,85.24
2023-11-30T20:33:47.485Z,84.98
2023-11-30T20:36:16.703Z,85.18
2023-11-30T20:38:45.389Z,84.99
2023-11-30T20:41:13.872Z,85.56
2023-11-30T20:43:42.504Z,85.96
2023-11-30T20:46:11.722Z,85.95
2023-11-30T20:48:40.391Z,85.75
2023-11-30T20:51:10.310Z,86.11
2023-11-30T20:53:39.046Z,85.91
2023-11-30T20:56:08.339Z,86.11
2023-11-30T20:58:38.144Z,85.83
2023-11-30T21:01:07.325Z,85.68
2023-11-30T21:03:36.201Z,86.34
2023-11-30T21:06:05.632Z,86.27
2023-11-30T21:08:34.262Z,86.04
2023-11-30T21:11:03.355Z,86.00
2023-11-30T21:13:33.433Z,86.07
2023-11-30T21:16:02.562Z,86.17
2023-11-30T21:18:31.316Z,86.38
2023-11-30T21:20:59.993Z,86.16
2023-11-30T21:23:28.626Z,86.27
2023-11-30T21:25:57.357Z,86.10
2023-11-30T21:28:25.989Z,85.99
2023-11-30T21:30:54.670Z,86.37
2023-11-30T21:33:23.589Z,86.30
2023-11-30T21:35:52.880Z,85.99
2023-11-30T21:38:21.416Z,86.10
2023-11-30T21:40:50.754Z,85.94
2023-11-30T21:43:19.800Z,86.24
2023-11-30T21:45:48.596Z,86.46
2023-11-30T21:48:17.560Z,86.60
2023-11-30T21:50:46.225Z,86.38
2023-11-30T21:53:14.861Z,86.56
2023-11-30T21:55:43.530Z,86.27
2023-11-30T21:58:13.194Z,86.39
2023-11-30T22:00:42.004Z,86.39
2023-11-30T22:03:11.069Z,86.51
2023-11-30T22:05:40.683Z,86.46
2023-11-30T22:08:10.299Z,86.43
2023-11-30T22:10:38.859Z,86.67
2023-11-30T22:13:09.540Z,86.67
2023-11-30T22:15:38.613Z,86.65
2023-11-30T22:18:07.186Z,86.75
2023-11-30T22:20:35.889Z,86.67
2023-11-30T22:23:04.840Z,86.60
2023-11-30T22:25:33.322Z,86.48
2023-11-30T22:28:02.455Z,86.67
2023-11-30T22:30:31.349Z,86.48
2023-11-30T22:33:00.257Z,86.66
2023-11-30T22:35:29.473Z,86.75
2023-11-30T22:37:58.443Z,86.79
2023-11-30T22:40:27.863Z,86.63
2023-11-30T22:42:56.617Z,86.53
2023-11-30T22:45:25.265Z,86.73
2023-11-30T22:47:53.917Z,86.91
2023-11-30T22:50:22.706Z,87.11
2023-11-30T22:52:52.115Z,86.68
2023-11-30T22:55:22.584Z,86.88
2023-11-30T22:57:51.480Z,86.77
2023-11-30T23:00:25.646Z,86.54
2023-11-30T23:02:55.176Z,86.64
2023-11-30T23:05:24.945Z,86.81
2023-11-30T23:07:53.575Z,86.82
2023-11-30T23:10:22.171Z,87.00
2023-11-30T23:12:51.723Z,86.92
2023-11-30T23:15:22.238Z,86.91
2023-11-30T23:17:51.051Z,86.84
2023-11-30T23:20:19.710Z,86.87
2023-11-30T23:22:49.206Z,86.96
2023-11-30T23:25:17.891Z,87.04
2023-11-30T23:27:46.484Z,87.05
2023-11-30T23:30:15.259Z,86.87
2023-11-30T23:32:45.584Z,87.01
2023-11-30T23:35:14.112Z,87.12
2023-11-30T23:37:42.649Z,86.88
2023-11-30T23:40:12.134Z,86.81
2023-11-30T23:42:41.207Z,86.90
2023-11-30T23:45:11.211Z,86.99
2023-11-30T23:47:39.908Z,86.99
2023-11-30T23:50:09.048Z,87.03
2023-11-30T23:52:39.256Z,86.96
2023-11-30T23:55:08.086Z,86.93
2023-11-30T23:57:37.370Z,86.79
